SEQMSPJR

Guest
Details From SEQM - Quito - Mariscal Sucre Intl
To SPJR - GEN FAP ARMANDO REVOREDO IGLESIAS
Flight Number -
Tags generated
Created
Modified
Stats Distance 435 nm / 806 km
Max Altitude 35,000 ft / 10,668 m
Waypoints 6
Social Downloads 1
Likes 0
Share VATSIM

Download

Looking for another format? Having issues loading an existing format? Contact us
Advertisement - Login to hide

Notes

Basic altitude profile: - Ascent Rate: 2000ft/min - Ascent Speed: 280kts - Cruise Altitude: 28000ft - Cruise Speed: 420kts - Descent Rate: 3800ft/min - Descent Speed: 250kts Options: - Use NATs: yes - Use PACOTS: yes - Use low airways: yes - Use high airways: yes

Route

SEQM PAKOK UG426 POY V16 MAR SPJR

ID Type Via Altitude Latitude Longitude Leg Dist Tot Dist Heading (true) Name
O SEQM APT - 0 ft / 0 m -0.12409˚ -78.35438˚ - 0 nm - Quito - Mariscal Sucre Intl
PAKOK FIX - 16,700 ft / 5,090 m -0.89944˚ -78.44806˚ 46 nm 46 nm 187° / 187° -
MIRLO FIX UG426 (AWY-HI) 35,000 ft / 10,668 m -3.53333˚ -78.25000˚ 158 nm 205 nm 176° / 176° -
POY VOR UG426 (AWY-HI) 23,500 ft / 7,163 m -6.20028˚ -77.86000˚ 161 nm 367 nm 172° / 172° CHACHAPOYAS VOR-DME
MAR NDB V16 (AWY-LO) 16,000 ft / 4,877 m -7.14000˚ -78.49056˚ 67 nm 435 nm 214° / 214° CAJAMARCA NDB
O SPJR APT - 0 ft / 0 m -7.13918˚ -78.48940˚ 0 nm 435 nm 55° / 55° GEN FAP ARMANDO REVOREDO IGLESIAS

Altitude Profile

Advertisement - Login to hide

Weather


0- 5 10 15 20 25 30 35+ Temperature / ° C

Clouds and Precipitation
Forecast for 2018-05-25 12:00 UTC. Updated 20 minutes ago

Ground ~20,000 ft ~40,000 ft Winds

SEQM

Details ICAO SEQM
Name Quito - Mariscal Sucre Intl
Region Equador
Timezone America/Guayaquil (UTC-5.0)
Stats Elevation 7,841 ft / 2,390 m (AMSL)
Location -0.124089° -78.354381°
Runways 1
Magnetic Variation 3.664° W

METAR

SEQM 250900Z 12002KT 9999 SCT005 OVC023 13/13 Q1026 NOSIG RMK A3031

Decode

TAF

Not found

Departure Runways

ID Width Length Bearing (true) Bearing (mag) Surface Threshold Offset Overrun Length
18 171 ft / 52 m 13,524 ft / 4,122 m 177.61° 181.27° Asphalt 0 ft / 0 m 177 ft / 54 m
36 171 ft / 52 m 13,524 ft / 4,122 m 357.61° 1.27° Asphalt 0 ft / 0 m 184 ft / 56 m

SPJR

Details ICAO SPJR (CJA)
Name GEN FAP ARMANDO REVOREDO IGLESIAS
Region Peru
Timezone America/Lima (UTC-5.0)
Stats Elevation 8,781 ft / 2,676 m (AMSL)
Location -7.139184° -78.489400°
Runways 1
Magnetic Variation 2.110° W

METAR

SPJR 250900Z 34003KT CAVOK 07/06 Q1028 RMK PP000

Decode

TAF

Not found

Destination Runways

ID Width Length Bearing (true) Bearing (mag) Surface Threshold Offset Overrun Length
16 148 ft / 45 m 8,206 ft / 2,501 m 157.82° 159.93° Asphalt 0 ft / 0 m 190 ft / 58 m
34 148 ft / 45 m 8,206 ft / 2,501 m 337.82° 339.93° Asphalt 0 ft / 0 m 190 ft / 58 m